Time;durP1;ratioP1;P1;durP2;ratioP2;P2;SDS_P1;SDS_P2;PMS_P1;PMS_P2;Temp;Humidity;BMP_temperature;BMP_pressure;BME280_temperature;BME280_humidity;BME280_pressure;Samples;Min_cycle;Max_cycle;Signal;HPM_P1;HPM_P2
2023/01/01 00:02:02;;;;;;;9.90;4.80;;;;;;;10.88;48.46;100327.94;4908294;28;20308;-70
2023/01/01 00:04:27;;;;;;;8.48;5.30;;;;;;;10.63;48.69;100336.13;4908869;29;20053;-71
2023/01/01 00:06:53;;;;;;;12.38;4.53;;;;;;;10.26;50.16;100340.50;4910805;28;20138;-74
2023/01/01 00:12:03;;;;;;;10.13;4.57;;;;;;;10.50;49.12;100335.84;4913373;28;20055;-72
2023/01/01 00:14:28;;;;;;;12.95;4.07;;;;;;;10.13;49.73;100353.28;4913146;29;20043;-73
2023/01/01 00:16:54;;;;;;;11.63;4.40;;;;;;;10.40;49.67;100353.75;4911815;29;20062;-72
2023/01/01 00:19:20;;;;;;;22.30;5.47;;;;;;;10.58;49.09;100346.78;4913266;29;20039;-72
2023/01/01 00:21:46;;;;;;;11.70;4.80;;;;;;;10.37;49.60;100351.28;4913114;28;20058;-72
2023/01/01 00:24:11;;;;;;;14.73;5.10;;;;;;;10.59;49.00;100353.72;4911914;29;20110;-76
2023/01/01 00:26:37;;;;;;;16.00;6.60;;;;;;;9.89;50.65;100336.13;4912571;28;20122;-74
2023/01/01 00:29:03;;;;;;;15.13;5.78;;;;;;;10.15;50.46;100350.63;4913517;29;20114;-73
2023/01/01 00:31:29;;;;;;;19.42;6.25;;;;;;;10.14;50.36;100352.34;4910768;28;20047;-73
2023/01/01 00:33:55;;;;;;;17.98;6.30;;;;;;;10.02;50.43;100368.59;4907468;29;20341;-72
2023/01/01 00:36:22;;;;;;;9.82;6.03;;;;;;;9.89;50.40;100351.81;4913606;29;20127;-75
2023/01/01 00:38:47;;;;;;;16.88;6.50;;;;;;;10.33;50.04;100362.81;4895009;29;20044;-73
2023/01/01 00:41:15;;;;;;;12.65;6.15;;;;;;;10.04;51.00;100368.53;4912345;28;20175;-73
2023/01/01 00:43:41;;;;;;;19.17;7.30;;;;;;;11.02;48.54;100369.94;4908790;28;20066;-73
2023/01/01 00:46:07;;;;;;;13.27;6.47;;;;;;;10.68;49.32;100359.41;4908795;28;20773;-74
2023/01/01 00:48:33;;;;;;;16.08;6.72;;;;;;;10.53;49.87;100374.94;4911809;28;20340;-75
2023/01/01 00:50:58;;;;;;;22.60;7.63;;;;;;;10.08;51.06;100370.94;4918714;28;20031;-74
2023/01/01 00:53:24;;;;;;;18.52;6.25;;;;;;;10.09;51.41;100380.47;4910466;29;20054;-75
2023/01/01 00:55:50;;;;;;;11.85;6.07;;;;;;;9.44;53.04;100345.91;4912021;29;20140;-75
2023/01/01 00:58:17;;;;;;;11.15;5.53;;;;;;;10.03;52.69;100391.16;4913637;29;20046;-74
2023/01/01 01:00:43;;;;;;;15.90;6.68;;;;;;;10.24;51.96;100388.53;4912904;29;20123;-74
2023/01/01 01:03:26;;;;;;;16.05;5.90;;;;;;;9.83;53.98;100401.66;4904035;29;20047;-74
2023/01/01 01:06:12;;;;;;;13.07;5.90;;;;;;;9.47;55.40;100397.09;4902596;29;20720;-76
2023/01/01 01:08:41;;;;;;;14.50;6.20;;;;;;;9.61;55.20;100397.38;4928527;28;20046;-75
2023/01/01 01:11:18;;;;;;;17.67;6.43;;;;;;;9.22;56.79;100392.09;4916225;29;20039;-75
2023/01/01 01:13:47;;;;;;;18.73;7.80;;;;;;;9.72;55.36;100402.97;4931985;28;20074;-80
2023/01/01 01:16:18;;;;;;;20.63;7.28;;;;;;;9.40;56.19;100392.16;4938013;29;20303;-78
2023/01/01 01:18:44;;;;;;;;;;;;;;;9.81;54.98;100396.50;4936658;28;20123;-75
2023/01/01 01:21:14;;;;;;;17.73;8.35;;;;;;;9.87;54.80;100401.47;4929310;29;19914;-77
2023/01/01 01:23:39;;;;;;;21.27;10.07;;;;;;;9.57;55.52;100401.03;4932046;28;20133;-77
2023/01/01 01:26:26;;;;;;;20.08;10.88;;;;;;;9.47;55.06;100410.16;4937938;28;20038;-77
2023/01/01 01:28:52;;;;;;;21.50;9.88;;;;;;;9.93;54.13;100402.97;4916006;29;20058;-79
2023/01/01 01:31:20;;;;;;;26.33;11.05;;;;;;;9.63;54.57;100400.75;4917481;29;20024;-76
2023/01/01 01:33:47;;;;;;;22.70;10.68;;;;;;;9.65;54.92;100400.69;4909916;28;20163;-78
2023/01/01 01:36:14;;;;;;;24.45;10.85;;;;;;;9.54;54.81;100395.94;4916807;29;20047;-77
2023/01/01 01:38:40;;;;;;;19.95;10.07;;;;;;;9.84;53.80;100395.53;4905261;29;20051;-78
2023/01/01 01:41:07;;;;;;;27.35;9.57;;;;;;;9.63;54.47;100403.34;4916406;29;20549;-75
2023/01/01 01:43:32;;;;;;;22.25;10.88;;;;;;;9.77;53.84;100414.06;4914554;28;20471;-76
2023/01/01 01:46:03;;;;;;;18.70;10.10;;;;;;;9.93;53.79;100408.19;4913179;29;20558;-76
2023/01/01 01:48:39;;;;;;;25.50;10.70;;;;;;;9.73;53.98;100420.31;4904806;29;20123;-76
2023/01/01 01:51:06;;;;;;;18.85;11.10;;;;;;;10.08;53.37;100428.38;4915182;29;20075;-75
2023/01/01 01:53:37;;;;;;;21.83;11.52;;;;;;;9.29;55.26;100425.66;4914408;28;20139;-78
2023/01/01 01:56:09;;;;;;;25.80;11.13;;;;;;;9.99;53.64;100431.38;4913592;28;20336;-76
2023/01/01 01:58:34;;;;;;;21.63;11.48;;;;;;;9.46;54.58;100429.34;4919315;28;20426;-76
2023/01/01 02:01:00;;;;;;;18.08;10.10;;;;;;;9.41;54.25;100434.75;4914614;29;20311;-76
2023/01/01 02:03:32;;;;;;;18.42;10.27;;;;;;;9.57;53.93;100429.72;4912525;28;20047;-79
2023/01/01 02:05:58;;;;;;;20.02;11.50;;;;;;;9.83;53.37;100435.59;4897845;29;20445;-71
2023/01/01 02:08:25;;;;;;;31.33;13.05;;;;;;;9.57;54.42;100421.91;4911449;28;20043;-71
2023/01/01 02:10:51;;;;;;;23.85;12.35;;;;;;;9.69;54.10;100434.41;4890661;29;20284;-73
2023/01/01 02:13:17;;;;;;;24.25;12.15;;;;;;;10.10;53.10;100450.06;4908343;28;20406;-73
2023/01/01 02:15:51;;;;;;;20.95;11.93;;;;;;;9.88;53.40;100425.78;4910760;29;20051;-72
2023/01/01 02:18:24;;;;;;;26.77;12.52;;;;;;;10.15;52.49;100442.03;4902091;29;20370;-73
2023/01/01 02:20:57;;;;;;;24.25;12.43;;;;;;;9.35;54.47;100450.66;4903054;29;20800;-72
2023/01/01 02:23:56;;;;;;;27.42;13.65;;;;;;;10.26;52.54;100446.72;4909952;29;20059;-72
2023/01/01 02:26:24;;;;;;;27.55;13.00;;;;;;;10.12;53.06;100452.59;4918294;29;20036;-77
2023/01/01 02:29:23;;;;;;;21.27;11.98;;;;;;;9.18;55.72;100438.28;4928380;28;20415;-76
2023/01/01 02:32:03;;;;;;;33.00;13.20;;;;;;;9.85;54.47;100454.66;4920140;28;20401;-77
2023/01/01 02:34:35;;;;;;;32.35;13.70;;;;;;;9.30;56.39;100470.88;4907830;29;20135;-78
2023/01/01 02:37:05;;;;;;;24.20;13.13;;;;;;;9.39;56.58;100462.66;4925950;28;20043;-77
2023/01/01 02:39:34;;;;;;;29.05;13.90;;;;;;;9.24;57.07;100487.59;4939802;28;20449;-78
2023/01/01 02:42:02;;;;;;;25.20;13.43;;;;;;;9.77;55.75;100487.13;4935960;28;20109;-76
2023/01/01 02:44:31;;;;;;;32.30;15.18;;;;;;;9.15;57.38;100493.19;4932382;28;20421;-76
2023/01/01 02:47:04;;;;;;;36.42;15.55;;;;;;;9.25;57.31;100491.88;4936187;28;20043;-76
2023/01/01 02:49:30;;;;;;;32.40;16.88;;;;;;;9.10;58.23;100505.56;4935341;28;20172;-71
2023/01/01 02:52:24;;;;;;;35.20;18.60;;;;;;;9.35;57.72;100493.22;4930804;28;20755;-68
2023/01/01 02:55:05;;;;;;;35.53;17.30;;;;;;;8.98;59.09;100501.66;4931871;28;20361;-69
2023/01/01 02:57:38;;;;;;;31.50;16.27;;;;;;;8.92;59.82;100492.34;4934133;28;20098;-69
2023/01/01 03:00:26;;;;;;;35.50;17.42;;;;;;;8.93;59.00;100496.63;4940140;28;20038;-71
2023/01/01 03:03:07;;;;;;;32.22;18.27;;;;;;;9.03;58.87;100501.47;4938114;28;20047;-77
2023/01/01 03:08:53;;;;;;;33.65;17.05;;;;;;;9.39;57.63;100486.97;4915018;29;20377;-80
2023/01/01 03:11:23;;;;;;;37.45;17.73;;;;;;;8.73;59.08;100478.31;4915801;29;20066;-77
2023/01/01 03:14:11;;;;;;;31.48;17.15;;;;;;;9.25;57.53;100478.84;4923915;28;20047;-76
2023/01/01 03:16:44;;;;;;;33.15;16.67;;;;;;;8.83;58.51;100486.63;4924355;28;20035;-78
2023/01/01 03:19:17;;;;;;;31.33;16.77;;;;;;;9.46;56.73;100473.69;4936695;28;20035;-76
2023/01/01 03:21:49;;;;;;;34.75;16.42;;;;;;;9.10;57.24;100488.16;4934417;28;20023;-78
2023/01/01 03:24:37;;;;;;;27.25;14.63;;;;;;;9.63;56.13;100476.41;4936939;28;20034;-78
2023/01/01 03:27:28;;;;;;;31.08;15.65;;;;;;;9.40;56.54;100487.81;4936225;28;20325;-77
2023/01/01 03:29:58;;;;;;;27.25;14.52;;;;;;;9.83;55.41;100472.13;4935212;28;20427;-78
2023/01/01 03:35:20;;;;;;;25.50;12.25;;;;;;;9.14;56.80;100479.31;4949586;28;20069;-75
2023/01/01 03:37:49;;;;;;;25.00;11.73;;;;;;;9.19;57.22;100486.94;4936968;28;20054;-77
2023/01/01 03:40:18;;;;;;;23.73;11.70;;;;;;;9.23;57.05;100496.34;4935097;28;20079;-76
2023/01/01 03:42:50;;;;;;;29.13;12.82;;;;;;;8.53;59.12;100485.09;4934539;28;20061;-78
2023/01/01 03:45:20;;;;;;;30.45;13.38;;;;;;;9.07;58.44;100496.09;4926309;28;20039;-76
2023/01/01 03:47:47;;;;;;;29.77;12.80;;;;;;;9.16;58.16;100510.50;4936563;28;20352;-77
2023/01/01 03:50:13;;;;;;;24.23;11.38;;;;;;;8.83;59.96;100510.06;4940505;28;20066;-78
2023/01/01 03:52:42;;;;;;;27.35;11.52;;;;;;;8.44;61.31;100493.25;4938977;28;20130;-76
2023/01/01 03:55:26;;;;;;;23.33;11.57;;;;;;;8.34;62.03;100517.97;4947973;28;20061;-75
2023/01/01 03:58:22;;;;;;;32.97;13.38;;;;;;;8.61;60.77;100517.84;4961252;28;20035;-76
2023/01/01 04:01:25;;;;;;;27.83;12.38;;;;;;;8.97;59.88;100519.06;4927787;28;20045;-75
2023/01/01 04:03:51;;;;;;;30.58;13.60;;;;;;;8.77;60.15;100516.38;4906090;29;20052;-75
2023/01/01 04:06:17;;;;;;;27.60;12.20;;;;;;;8.39;60.62;100520.41;4908120;29;20027;-76
2023/01/01 04:08:45;;;;;;;23.60;11.77;;;;;;;8.95;59.24;100527.88;4915431;28;20082;-76
2023/01/01 04:14:02;;;;;;;;;;;;;;;8.60;59.18;100539.59;4915931;29;21013;-73
2023/01/01 04:16:28;;;;;;;24.33;9.05;;;;;;;8.70;58.80;100526.16;4916067;28;20042;-76
2023/01/01 04:18:53;;;;;;;24.75;9.48;;;;;;;8.71;58.04;100527.88;4918931;28;20047;-75
2023/01/01 04:21:19;;;;;;;18.00;9.02;;;;;;;9.38;56.66;100532.22;4919935;29;20318;-74
2023/01/01 04:23:44;;;;;;;19.20;8.10;;;;;;;8.68;58.55;100527.13;4914876;29;20043;-74
2023/01/01 04:26:12;;;;;;;20.23;7.63;;;;;;;8.54;58.98;100540.69;4921207;28;20048;-73
2023/01/01 04:28:37;;;;;;;16.80;5.88;;;;;;;8.59;59.09;100517.06;4916492;28;20532;-74
2023/01/01 04:31:03;;;;;;;16.20;5.47;;;;;;;8.57;59.07;100515.34;4908798;29;20047;-69
2023/01/01 04:33:28;;;;;;;8.55;5.15;;;;;;;8.61;58.98;100530.88;4914075;28;20059;-74
2023/01/01 04:35:53;;;;;;;15.60;6.45;;;;;;;8.24;60.34;100527.00;4917150;29;20047;-75
2023/01/01 04:38:19;;;;;;;9.35;4.78;;;;;;;8.32;59.69;100519.78;4913603;28;20105;-77
2023/01/01 04:40:44;;;;;;;7.75;3.78;;;;;;;8.29;59.53;100510.31;4912607;29;20122;-76
2023/01/01 04:43:10;;;;;;;10.15;3.85;;;;;;;8.70;58.98;100510.53;4911456;28;20032;-76
2023/01/01 04:45:36;;;;;;;9.75;4.50;;;;;;;8.87;58.73;100507.28;4913368;28;20032;-75
2023/01/01 04:48:04;;;;;;;17.83;5.97;;;;;;;8.62;59.67;100529.97;4913512;28;20063;-74
2023/01/01 04:50:30;;;;;;;19.23;5.63;;;;;;;8.47;60.33;100537.44;4910571;29;20358;-75
2023/01/01 04:52:57;;;;;;;7.93;4.75;;;;;;;8.51;60.75;100536.41;4909802;28;20472;-74
2023/01/01 04:55:23;;;;;;;15.00;5.10;;;;;;;8.64;60.12;100551.59;4910366;29;20417;-74
2023/01/01 04:57:48;;;;;;;11.75;6.00;;;;;;;8.54;60.63;100554.53;4910832;28;20083;-74
2023/01/01 05:00:14;;;;;;;11.40;4.30;;;;;;;7.85;61.85;100561.31;4912247;29;20126;-74
2023/01/01 05:02:39;;;;;;;8.98;4.78;;;;;;;7.84;62.59;100557.00;4904119;29;20056;-76
2023/01/01 05:05:05;;;;;;;11.50;3.72;;;;;;;8.11;61.31;100574.31;4884504;29;20066;-74
2023/01/01 05:07:32;;;;;;;9.65;2.75;;;;;;;8.87;59.38;100562.03;4908488;29;20139;-74
2023/01/01 05:09:57;;;;;;;6.47;2.30;;;;;;;8.48;60.31;100567.78;4913091;29;20035;-75
2023/01/01 05:12:23;;;;;;;12.80;3.13;;;;;;;8.39;60.35;100565.50;4911969;29;20551;-78
2023/01/01 05:14:48;;;;;;;9.50;3.10;;;;;;;8.46;60.22;100540.94;4912619;29;20035;-76
2023/01/01 05:17:13;;;;;;;8.45;2.65;;;;;;;8.28;60.30;100552.03;4896161;29;20442;-77
2023/01/01 05:19:39;;;;;;;6.85;1.92;;;;;;;8.70;59.12;100556.59;4907646;29;20152;-78
2023/01/01 05:22:05;;;;;;;9.18;2.38;;;;;;;8.63;58.92;100561.19;4914307;28;20043;-76
2023/01/01 05:24:35;;;;;;;7.25;2.97;;;;;;;8.94;58.36;100560.91;4914163;29;20434;-75
2023/01/01 05:27:00;;;;;;;6.22;2.15;;;;;;;8.94;57.90;100568.72;4912973;28;20477;-78
2023/01/01 05:29:26;;;;;;;12.43;2.05;;;;;;;8.90;57.92;100579.31;4915895;29;20036;-74
2023/01/01 05:31:52;;;;;;;11.25;2.88;;;;;;;8.48;59.10;100604.25;4932270;28;20119;-74
2023/01/01 05:34:17;;;;;;;8.00;2.42;;;;;;;8.85;58.14;100600.34;4917672;28;20112;-74
2023/01/01 05:36:43;;;;;;;5.75;1.88;;;;;;;8.79;58.45;100597.13;4922218;28;20515;-73
2023/01/01 05:39:11;;;;;;;9.52;2.08;;;;;;;8.53;58.89;100606.69;4928434;29;20568;-75
2023/01/01 05:41:36;;;;;;;7.93;2.13;;;;;;;8.83;58.09;100609.09;4919588;28;20063;-75
2023/01/01 05:44:04;;;;;;;7.85;2.72;;;;;;;8.82;58.07;100600.44;4922579;29;20027;-74
2023/01/01 05:46:30;;;;;;;8.18;2.53;;;;;;;9.06;57.45;100605.66;4910130;28;20138;-74
2023/01/01 05:48:56;;;;;;;6.13;2.35;;;;;;;8.68;58.43;100610.50;4913957;29;20354;-74
2023/01/01 05:51:26;;;;;;;7.57;2.53;;;;;;;8.88;57.83;100612.41;4920423;28;20032;-74
2023/01/01 05:53:53;;;;;;;4.20;2.20;;;;;;;9.12;57.58;100611.50;4936705;28;20576;-74
2023/01/01 05:56:18;;;;;;;33.92;3.72;;;;;;;9.14;57.43;100634.88;4929193;28;20291;-77
2023/01/01 05:58:45;;;;;;;10.70;2.50;;;;;;;9.25;57.27;100644.91;4936609;28;20035;-74
2023/01/01 06:01:18;;;;;;;4.30;1.85;;;;;;;8.91;57.85;100639.19;4937775;28;20066;-74
2023/01/01 06:03:44;;;;;;;10.82;2.22;;;;;;;8.98;57.71;100642.44;4931793;28;20055;-74
2023/01/01 06:06:18;;;;;;;10.15;2.42;;;;;;;9.30;56.74;100643.84;4939683;28;20046;-73
2023/01/01 06:08:53;;;;;;;6.72;2.40;;;;;;;9.53;56.34;100649.91;4936355;28;20089;-73
2023/01/01 06:11:19;;;;;;;8.05;2.05;;;;;;;9.51;55.87;100644.75;4934661;28;20103;-74
2023/01/01 06:13:44;;;;;;;14.38;3.15;;;;;;;8.53;58.65;100628.38;4939319;28;20039;-73
2023/01/01 06:16:11;;;;;;;5.80;1.92;;;;;;;8.83;57.55;100630.84;4946574;28;20038;-73
2023/01/01 06:18:37;;;;;;;10.95;2.97;;;;;;;9.15;56.58;100642.66;4938178;28;20039;-74
2023/01/01 06:21:12;;;;;;;12.90;2.72;;;;;;;8.73;58.01;100639.88;4947667;28;20206;-73
2023/01/01 06:23:38;;;;;;;6.82;2.03;;;;;;;8.55;58.06;100668.25;4936942;28;20567;-74
2023/01/01 06:26:09;;;;;;;8.27;1.88;;;;;;;8.99;57.00;100646.75;4939106;28;20046;-70
2023/01/01 06:28:35;;;;;;;14.23;1.33;;;;;;;9.11;56.43;100653.25;4929636;28;20114;-70
2023/01/01 06:31:05;;;;;;;3.05;1.38;;;;;;;8.94;56.56;100659.94;4924707;28;20569;-70
2023/01/01 06:33:31;;;;;;;9.90;1.80;;;;;;;9.06;56.10;100663.84;4929074;28;20386;-69
2023/01/01 06:35:57;;;;;;;6.18;2.42;;;;;;;9.23;55.86;100675.41;4927931;28;20775;-70
2023/01/01 06:38:23;;;;;;;12.52;1.60;;;;;;;9.15;55.52;100673.09;4931305;28;20109;-73
2023/01/01 06:40:59;;;;;;;11.70;2.05;;;;;;;9.32;55.21;100675.06;4935736;28;20260;-75
2023/01/01 06:43:25;;;;;;;13.00;2.40;;;;;;;8.56;56.57;100662.16;4941284;28;20051;-74
2023/01/01 06:46:18;;;;;;;7.60;0.98;;;;;;;9.48;54.48;100685.78;4941426;28;20046;-75
2023/01/01 06:48:46;;;;;;;8.07;0.82;;;;;;;8.52;55.93;100696.16;4939843;28;20366;-74
2023/01/01 06:51:18;;;;;;;3.63;1.23;;;;;;;8.67;56.12;100686.94;4942205;28;20039;-74
2023/01/01 06:53:44;;;;;;;5.50;0.93;;;;;;;9.10;54.98;100703.72;4941713;28;20100;-74
2023/01/01 06:56:11;;;;;;;3.28;0.95;;;;;;;9.19;54.45;100722.47;4952016;28;20066;-72
2023/01/01 06:58:36;;;;;;;3.83;1.10;;;;;;;9.09;54.54;100726.31;4936251;28;20042;-80
2023/01/01 07:01:07;;;;;;;7.47;0.90;;;;;;;8.89;54.87;100726.16;4934573;28;20038;-75
2023/01/01 07:03:33;;;;;;;6.63;1.33;;;;;;;8.74;54.46;100745.81;4914710;28;20050;-75
2023/01/01 07:05:59;;;;;;;3.85;0.80;;;;;;;9.14;53.25;100754.81;4948713;28;20031;-75
2023/01/01 07:08:25;;;;;;;9.73;1.40;;;;;;;8.75;54.26;100750.13;4947142;28;20110;-76
2023/01/01 07:10:50;;;;;;;3.97;1.40;;;;;;;9.19;52.73;100766.81;4939964;28;20058;-74
2023/01/01 07:13:16;;;;;;;3.53;0.77;;;;;;;8.66;53.27;100755.59;4942250;28;20093;-75
2023/01/01 07:15:43;;;;;;;7.35;0.52;;;;;;;9.04;52.45;100751.69;4942771;28;20070;-73
2023/01/01 07:18:09;;;;;;;5.82;0.75;;;;;;;8.56;52.81;100748.09;4929327;29;20194;-72
2023/01/01 07:20:34;;;;;;;3.42;0.28;;;;;;;8.39;52.94;100745.22;4947925;28;20039;-76
2023/01/01 07:23:01;;;;;;;7.80;0.30;;;;;;;9.00;51.45;100754.47;4934404;28;20050;-76
2023/01/01 07:25:27;;;;;;;4.05;0.57;;;;;;;8.66;51.66;100766.88;4941008;28;20035;-75
2023/01/01 07:27:52;;;;;;;4.30;0.50;;;;;;;8.89;51.08;100768.72;4920406;28;20109;-77
2023/01/01 07:30:18;;;;;;;2.55;0.52;;;;;;;8.73;51.32;100767.56;4937078;28;20788;-76
2023/01/01 07:32:43;;;;;;;7.25;0.75;;;;;;;8.82;50.62;100775.06;4937142;28;20284;-73
2023/01/01 07:35:09;;;;;;;2.17;0.32;;;;;;;8.79;50.67;100767.34;4942179;28;20035;-71
2023/01/01 07:37:37;;;;;;;5.40;0.32;;;;;;;8.73;50.98;100788.41;4936735;28;20074;-75
2023/01/01 07:40:03;;;;;;;2.55;0.17;;;;;;;8.99;50.31;100803.16;4936476;28;20027;-73
2023/01/01 07:42:28;;;;;;;10.68;0.65;;;;;;;8.72;50.69;100808.41;4933301;28;20202;-72
2023/01/01 07:44:54;;;;;;;4.43;0.38;;;;;;;8.82;50.40;100801.13;4930237;28;20066;-73
2023/01/01 07:47:22;;;;;;;8.18;1.38;;;;;;;8.34;50.92;100805.25;4935898;28;20050;-77
2023/01/01 07:49:48;;;;;;;1.23;0.40;;;;;;;9.40;48.83;100819.09;4936472;28;20168;-76
2023/01/01 07:52:13;;;;;;;1.95;0.28;;;;;;;8.73;49.82;100824.88;4936873;28;20051;-75
2023/01/01 07:54:39;;;;;;;4.90;0.20;;;;;;;8.86;49.58;100825.34;4936749;28;20043;-75
2023/01/01 07:57:04;;;;;;;1.83;0.20;;;;;;;8.77;49.72;100831.69;4933263;28;20154;-74
2023/01/01 07:59:30;;;;;;;8.20;0.50;;;;;;;8.08;51.10;100839.91;4914500;28;20048;-75
2023/01/01 08:01:56;;;;;;;3.75;0.20;;;;;;;8.55;50.13;100863.63;4914237;28;20069;-75
2023/01/01 08:04:22;;;;;;;7.43;0.63;;;;;;;8.36;50.58;100867.72;4896764;29;20137;-74
2023/01/01 08:06:47;;;;;;;4.10;0.22;;;;;;;8.19;50.91;100856.97;4915934;28;20085;-72
2023/01/01 08:09:13;;;;;;;1.60;0.40;;;;;;;8.20;50.46;100875.13;4921143;29;20051;-75
2023/01/01 08:11:38;;;;;;;5.38;0.43;;;;;;;8.17;50.76;100877.81;4926144;28;20040;-73
2023/01/01 08:14:03;;;;;;;4.22;0.50;;;;;;;8.35;50.07;100882.47;4919196;29;20036;-72
2023/01/01 08:16:29;;;;;;;3.15;0.20;;;;;;;8.39;49.68;100892.81;4922222;28;20032;-73
2023/01/01 08:18:55;;;;;;;4.22;0.20;;;;;;;8.26;50.31;100894.94;4914273;29;20084;-73
2023/01/01 08:21:20;;;;;;;11.00;0.88;;;;;;;8.25;50.44;100903.63;4918082;29;20027;-73
2023/01/01 08:23:46;;;;;;;8.70;0.55;;;;;;;8.00;50.90;100911.31;4935597;28;20043;-73
2023/01/01 08:26:15;;;;;;;4.60;0.30;;;;;;;8.10;50.32;100911.00;4937645;28;20066;-72
2023/01/01 08:28:40;;;;;;;9.60;0.73;;;;;;;7.90;50.74;100926.34;4940411;28;20038;-73
2023/01/01 08:31:06;;;;;;;7.93;1.15;;;;;;;8.54;49.24;100927.06;4940464;28;20101;-72
2023/01/01 08:33:34;;;;;;;8.43;0.30;;;;;;;8.27;50.10;100939.16;4941074;28;20043;-75
2023/01/01 08:36:01;;;;;;;5.30;0.28;;;;;;;8.08;50.29;100931.00;4941284;28;20359;-73
2023/01/01 08:38:26;;;;;;;11.18;1.77;;;;;;;8.42;49.52;100927.41;4940391;28;20051;-73
2023/01/01 08:40:52;;;;;;;6.70;0.40;;;;;;;8.53;49.43;100945.34;4938822;28;20046;-73
2023/01/01 08:43:17;;;;;;;6.25;0.52;;;;;;;7.92;50.75;100954.03;4937765;28;20561;-72
2023/01/01 08:45:44;;;;;;;7.38;0.57;;;;;;;8.42;49.25;100963.88;4939466;28;20049;-73
2023/01/01 08:48:09;;;;;;;9.18;1.48;;;;;;;8.49;49.52;100965.41;4940745;28;20047;-73
2023/01/01 08:50:35;;;;;;;8.85;0.75;;;;;;;8.04;50.23;100989.25;4923077;28;20031;-74
2023/01/01 08:53:03;;;;;;;9.75;0.40;;;;;;;8.07;50.49;100998.72;4938689;28;20102;-73
2023/01/01 08:55:28;;;;;;;5.72;0.45;;;;;;;8.42;49.02;100999.50;4955670;28;20050;-73
2023/01/01 08:57:54;;;;;;;8.35;0.30;;;;;;;8.14;50.29;100990.72;4936901;28;20039;-75
2023/01/01 09:00:20;;;;;;;4.22;0.93;;;;;;;8.37;50.03;101007.44;4941808;28;20102;-74
2023/01/01 09:02:45;;;;;;;6.55;1.25;;;;;;;8.29;50.13;101012.00;4944444;28;20120;-73
2023/01/01 09:05:11;;;;;;;6.35;2.17;;;;;;;7.95;50.61;100992.97;4940440;28;20050;-72
2023/01/01 09:07:36;;;;;;;5.57;0.63;;;;;;;8.45;49.43;101008.09;4938333;28;20050;-73
2023/01/01 09:10:02;;;;;;;11.82;0.50;;;;;;;8.15;50.11;101012.41;4939020;28;20496;-72
2023/01/01 09:12:28;;;;;;;4.35;0.55;;;;;;;8.69;49.19;101019.53;4938053;28;20047;-73
2023/01/01 09:14:53;;;;;;;3.67;0.68;;;;;;;8.26;50.18;101006.91;4935685;28;20513;-72
2023/01/01 09:17:21;;;;;;;5.18;0.57;;;;;;;8.54;49.44;101026.06;4941850;28;20043;-73
2023/01/01 09:19:46;;;;;;;11.73;0.90;;;;;;;7.97;50.70;101036.34;4938200;28;20031;-73
2023/01/01 09:22:12;;;;;;;9.52;0.60;;;;;;;8.82;48.81;101019.19;4937772;28;20509;-73
2023/01/01 09:24:37;;;;;;;12.05;0.75;;;;;;;8.08;50.64;101032.53;4934314;28;20206;-73
2023/01/01 09:27:03;;;;;;;12.52;1.17;;;;;;;8.62;49.62;101027.56;4942327;28;20072;-73
2023/01/01 09:29:29;;;;;;;12.75;0.93;;;;;;;8.93;48.81;101035.38;4958092;28;20058;-73
2023/01/01 09:31:54;;;;;;;5.65;0.57;;;;;;;8.27;49.94;101050.25;4943324;28;20858;-73
2023/01/01 09:34:20;;;;;;;8.93;0.75;;;;;;;8.36;50.37;101052.63;4940661;28;20043;-73
2023/01/01 09:36:46;;;;;;;10.70;0.75;;;;;;;8.28;50.78;101060.63;4939512;28;20055;-73
2023/01/01 09:39:14;;;;;;;4.68;0.98;;;;;;;7.78;51.87;101075.84;4942803;28;20230;-73
2023/01/01 09:41:45;;;;;;;14.02;1.02;;;;;;;7.72;51.76;101082.03;4941661;28;20035;-73
2023/01/01 09:44:36;;;;;;;9.52;1.33;;;;;;;8.27;50.75;101073.69;4954236;28;20039;-73
2023/01/01 09:47:04;;;;;;;9.82;1.27;;;;;;;8.16;51.17;101081.81;4938657;28;20074;-73
2023/01/01 09:49:38;;;;;;;12.27;1.33;;;;;;;8.50;50.27;101089.56;4939921;28;20050;-73
2023/01/01 09:52:04;;;;;;;21.10;1.30;;;;;;;8.15;51.19;101065.31;4939062;28;20119;-73
2023/01/01 09:54:39;;;;;;;14.52;1.08;;;;;;;8.65;50.16;101095.22;4938758;28;20035;-73
2023/01/01 09:57:09;;;;;;;5.38;1.05;;;;;;;8.57;50.58;101109.31;4938377;28;20051;-75
2023/01/01 09:59:36;;;;;;;14.10;1.23;;;;;;;8.93;49.68;101084.91;4939009;28;20375;-74
2023/01/01 10:02:02;;;;;;;8.57;0.95;;;;;;;8.78;50.14;101088.78;4941401;28;20087;-75
2023/01/01 10:04:47;;;;;;;13.68;1.27;;;;;;;8.05;51.72;101102.91;4939480;28;20089;-73
2023/01/01 10:07:37;;;;;;;16.65;1.27;;;;;;;8.52;50.95;101082.56;4944173;28;20047;-74
2023/01/01 10:10:29;;;;;;;10.05;1.83;;;;;;;8.77;50.16;101090.56;4942173;28;20031;-75
2023/01/01 10:13:10;;;;;;;;;;;;;;;8.65;50.04;101076.97;4926869;28;20043;-74
2023/01/01 10:15:41;;;;;;;13.70;1.65;;;;;;;8.68;50.33;101084.72;4938324;28;19918;-74
2023/01/01 10:18:16;;;;;;;9.15;1.20;;;;;;;8.43;50.28;101080.22;4935031;28;20167;-75
2023/01/01 10:20:47;;;;;;;15.25;1.52;;;;;;;8.73;49.74;101077.66;4937854;28;20039;-75
2023/01/01 10:23:25;;;;;;;13.02;0.90;;;;;;;9.00;49.45;101070.75;4934253;28;20054;-75
2023/01/01 10:25:53;;;;;;;11.05;0.70;;;;;;;9.43;48.50;101076.41;4928830;28;20551;-74
2023/01/01 10:28:31;;;;;;;7.30;0.70;;;;;;;9.19;48.20;101071.06;4941973;28;20066;-74
2023/01/01 10:31:18;;;;;;;15.98;1.55;;;;;;;8.97;48.78;101076.94;4951397;23;20723;-65
2023/01/01 10:33:45;;;;;;;15.88;0.80;;;;;;;8.96;49.08;101083.06;4903458;28;20051;-65
2023/01/01 10:36:15;;;;;;;16.15;1.38;;;;;;;9.25;48.30;101085.66;4901074;29;20846;-65
2023/01/01 10:38:41;;;;;;;15.38;1.00;;;;;;;8.88;49.19;101074.59;4900034;28;20050;-65
2023/01/01 10:41:10;;;;;;;6.30;1.25;;;;;;;9.23;48.14;101083.13;4899641;29;20032;-64
2023/01/01 10:43:35;;;;;;;6.40;1.13;;;;;;;9.12;48.88;101093.88;4896716;29;20115;-65
2023/01/01 10:46:02;;;;;;;8.43;0.90;;;;;;;9.34;48.33;101094.06;4901758;29;20036;-65
2023/01/01 10:48:30;;;;;;;7.28;0.82;;;;;;;9.65;47.16;101105.28;4898707;29;20187;-65
2023/01/01 10:51:00;;;;;;;10.98;1.42;;;;;;;8.77;49.65;101100.97;4912715;28;20040;-65
2023/01/01 10:53:36;;;;;;;5.40;1.02;;;;;;;9.11;48.55;101099.13;4911879;28;20503;-65
2023/01/01 10:56:09;;;;;;;4.35;0.88;;;;;;;9.09;48.80;101108.75;4899412;29;20078;-65
2023/01/01 10:58:35;;;;;;;13.23;1.80;;;;;;;9.29;48.23;101113.34;4913205;28;20476;-66
2023/01/01 11:01:03;;;;;;;8.57;0.60;;;;;;;8.50;50.55;101123.41;4897135;28;20046;-64
2023/01/01 11:03:28;;;;;;;8.05;1.15;;;;;;;9.04;48.96;101131.50;4898570;29;20054;-65
2023/01/01 11:06:09;;;;;;;10.25;0.85;;;;;;;8.78;49.62;101112.25;4899137;29;20031;-65
2023/01/01 11:08:38;;;;;;;5.50;0.63;;;;;;;8.85;49.72;101134.66;4913976;28;20048;-65
2023/01/01 11:11:04;;;;;;;9.73;0.73;;;;;;;8.61;50.11;101128.34;4915959;28;20502;-65
2023/01/01 11:13:31;;;;;;;14.85;1.45;;;;;;;8.83;50.01;101128.63;4897758;29;20060;-65
2023/01/01 11:15:57;;;;;;;11.75;1.08;;;;;;;8.42;50.97;101124.53;4912805;28;20436;-65
2023/01/01 11:18:34;;;;;;;8.30;1.58;;;;;;;8.32;51.12;101116.13;4899622;29;20063;-65
2023/01/01 11:21:01;;;;;;;9.95;1.60;;;;;;;8.43;50.73;101116.69;4899999;29;20031;-65
2023/01/01 11:23:32;;;;;;;15.40;1.77;;;;;;;9.38;48.59;101119.13;4919998;28;20724;-66
2023/01/01 11:26:25;;;;;;;17.73;1.77;;;;;;;9.62;47.96;101132.31;4901276;29;20098;-65
2023/01/01 11:29:27;;;;;;;7.30;1.30;;;;;;;9.17;48.94;101135.47;4898973;29;20208;-65
2023/01/01 11:31:54;;;;;;;11.10;0.98;;;;;;;9.32;48.20;101147.16;4896471;29;20055;-65
2023/01/01 11:34:31;;;;;;;12.68;1.10;;;;;;;9.44;47.96;101138.13;4915299;28;20040;-66
2023/01/01 11:37:22;;;;;;;8.80;1.50;;;;;;;9.46;48.06;101134.56;4897022;29;20318;-65
2023/01/01 11:39:51;;;;;;;11.27;0.85;;;;;;;10.18;46.74;101136.63;4900758;29;20044;-65
2023/01/01 11:42:26;;;;;;;12.30;0.50;;;;;;;9.34;48.30;101138.41;4897381;29;20058;-65
2023/01/01 11:44:57;;;;;;;6.88;0.80;;;;;;;9.53;48.15;101143.91;4897516;29;20043;-65
2023/01/01 11:47:25;;;;;;;9.32;0.80;;;;;;;9.57;48.09;101152.50;4900655;28;20080;-65
2023/01/01 11:50:04;;;;;;;7.80;0.80;;;;;;;9.44;48.41;101164.22;4909859;28;20879;-65